Time;durP1;ratioP1;P1;durP2;ratioP2;P2;SDS_P1;SDS_P2;PMS_P1;PMS_P2;Temp;Humidity;BMP_temperature;BMP_pressure;BME280_temperature;BME280_humidity;BME280_pressure;Samples;Min_cycle;Max_cycle;Signal;HPM_P1;HPM_P2
2022/11/12 00:01:56;;;;;;;6.60;2.60;;;16.80;1.00;;;;;;4862305;29;20125;-50
2022/11/12 00:04:41;;;;;;;5.85;2.50;;;16.80;1.00;;;;;;4862369;29;20056;-50
2022/11/12 00:07:27;;;;;;;4.68;2.78;;;16.80;1.00;;;;;;4862582;29;20052;-52
2022/11/12 00:10:12;;;;;;;6.25;2.90;;;16.70;1.00;;;;;;4861939;29;20060;-49
2022/11/12 00:12:58;;;;;;;3.75;2.58;;;16.80;1.00;;;;;;4862651;29;20098;-50
2022/11/12 00:15:45;;;;;;;4.72;2.65;;;16.80;1.00;;;;;;4862176;29;20154;-53
2022/11/12 00:18:30;;;;;;;6.55;3.35;;;16.80;1.00;;;;;;4862373;29;20148;-53
2022/11/12 00:21:16;;;;;;;3.83;2.55;;;16.80;1.00;;;;;;4862526;29;20094;-53
2022/11/12 00:24:02;;;;;;;6.57;2.85;;;16.70;1.00;;;;;;4861844;29;20056;-51
2022/11/12 00:26:47;;;;;;;8.13;2.33;;;16.70;1.00;;;;;;4862367;29;20052;-52
2022/11/12 00:29:32;;;;;;;5.50;2.90;;;16.70;1.00;;;;;;4861877;29;20064;-54
2022/11/12 00:32:18;;;;;;;4.57;2.65;;;16.70;1.00;;;;;;4862005;29;20129;-54
2022/11/12 00:35:05;;;;;;;4.57;2.33;;;16.70;1.00;;;;;;4861730;29;20055;-49
2022/11/12 00:37:56;;;;;;;5.03;2.80;;;16.70;1.00;;;;;;4862000;29;20056;-50
2022/11/12 00:40:42;;;;;;;6.50;3.55;;;16.70;1.00;;;;;;4861370;29;20068;-49
2022/11/12 00:43:27;;;;;;;5.85;2.85;;;16.70;1.00;;;;;;4862171;29;20145;-52
2022/11/12 00:46:13;;;;;;;7.05;2.95;;;16.70;1.00;;;;;;4861443;29;20190;-50
2022/11/12 00:48:59;;;;;;;6.55;3.30;;;16.70;1.00;;;;;;4861780;29;20064;-49
2022/11/12 00:51:45;;;;;;;4.88;2.60;;;16.70;1.00;;;;;;4861986;29;20132;-50
2022/11/12 00:54:30;;;;;;;5.72;2.28;;;16.70;1.00;;;;;;4861949;29;20069;-50
2022/11/12 00:57:16;;;;;;;6.03;2.90;;;16.70;1.00;;;;;;4861602;29;20424;-51
2022/11/12 01:00:02;;;;;;;3.83;2.83;;;16.70;1.00;;;;;;4861260;29;20057;-51
2022/11/12 01:02:48;;;;;;;8.65;3.30;;;16.70;1.00;;;;;;4861803;29;20072;-51
2022/11/12 01:05:35;;;;;;;4.20;2.08;;;16.70;1.00;;;;;;4861411;29;20189;-50
2022/11/12 01:08:21;;;;;;;5.55;2.95;;;16.70;1.00;;;;;;4861292;29;20056;-52
2022/11/12 01:11:21;;;;;;;6.57;2.55;;;16.70;1.00;;;;;;4861352;29;20048;-54
2022/11/12 01:14:08;;;;;;;4.15;2.58;;;16.70;1.00;;;;;;4861651;29;20156;-53
2022/11/12 01:16:53;;;;;;;4.40;2.35;;;16.70;1.00;;;;;;4862139;29;20107;-50
2022/11/12 01:19:39;;;;;;;7.13;3.33;;;16.70;1.00;;;;;;4861276;29;20141;-54
2022/11/12 01:22:25;;;;;;;4.95;2.83;;;16.70;1.00;;;;;;4861398;29;20064;-48
2022/11/12 01:25:10;;;;;;;3.45;2.20;;;16.70;1.00;;;;;;4861700;29;20517;-50
2022/11/12 01:27:55;;;;;;;4.68;2.65;;;16.70;1.00;;;;;;4861629;29;20423;-51
2022/11/12 01:30:40;;;;;;;4.38;2.55;;;16.70;1.00;;;;;;4861200;29;20063;-50
2022/11/12 01:33:26;;;;;;;3.75;2.45;;;16.70;1.00;;;;;;4862275;29;20110;-51
2022/11/12 01:36:14;;;;;;;2.97;2.35;;;16.70;1.00;;;;;;4867082;29;20542;-49
2022/11/12 01:38:59;;;;;;;6.15;2.78;;;16.70;1.00;;;;;;4867164;29;20079;-50
2022/11/12 01:41:45;;;;;;;5.28;2.50;;;16.70;1.00;;;;;;4867850;29;20059;-51
2022/11/12 01:44:33;;;;;;;5.93;2.55;;;16.70;1.00;;;;;;4867025;29;20052;-53
2022/11/12 01:47:23;;;;;;;4.15;2.22;;;16.70;1.00;;;;;;4867681;29;20534;-51
2022/11/12 01:50:22;;;;;;;5.18;3.03;;;16.70;1.00;;;;;;4867029;29;20060;-50
2022/11/12 01:53:12;;;;;;;4.57;2.60;;;16.70;1.00;;;;;;4867538;29;20084;-50
2022/11/12 01:55:59;;;;;;;5.68;3.33;;;16.70;1.00;;;;;;4867812;29;20064;-49
2022/11/12 01:58:46;;;;;;;4.40;2.08;;;16.60;1.00;;;;;;4865665;29;20076;-52
2022/11/12 02:01:33;;;;;;;3.97;2.40;;;16.60;1.00;;;;;;4867387;29;20080;-51
2022/11/12 02:04:19;;;;;;;3.70;2.60;;;16.70;1.00;;;;;;4867532;29;20108;-53
2022/11/12 02:07:09;;;;;;;3.22;2.15;;;16.60;1.00;;;;;;4867387;29;20128;-50
2022/11/12 02:09:55;;;;;;;7.20;2.97;;;16.60;1.00;;;;;;4866595;29;20056;-53
2022/11/12 02:15:46;;;;;;;6.95;2.38;;;16.60;1.00;;;;;;4867259;29;20070;-52
2022/11/12 02:18:31;;;;;;;4.22;2.60;;;16.60;1.00;;;;;;4867180;29;20056;-51
2022/11/12 02:21:21;;;;;;;4.30;3.03;;;16.60;1.00;;;;;;4866691;29;20084;-51
2022/11/12 02:24:13;;;;;;;9.35;3.45;;;16.60;1.00;;;;;;4866678;29;20065;-50
2022/11/12 02:26:58;;;;;;;3.80;2.75;;;16.60;1.00;;;;;;4867159;29;20137;-49
2022/11/12 02:29:46;;;;;;;6.63;2.88;;;16.60;1.00;;;;;;4866575;29;20052;-51
2022/11/12 02:32:31;;;;;;;3.78;2.45;;;16.60;1.00;;;;;;4866999;29;20076;-49
2022/11/12 02:35:17;;;;;;;5.88;2.97;;;16.60;1.00;;;;;;4867167;29;20185;-49
2022/11/12 02:38:03;;;;;;;3.05;2.47;;;16.60;1.00;;;;;;4866869;29;20113;-49
2022/11/12 02:40:50;;;;;;;3.75;2.55;;;16.60;1.00;;;;;;4866684;29;20515;-49
2022/11/12 02:43:35;;;;;;;4.72;2.38;;;16.60;1.00;;;;;;4867450;29;20080;-48
2022/11/12 02:46:21;;;;;;;3.90;2.53;;;16.60;1.00;;;;;;4863394;29;20056;-50
2022/11/12 02:49:06;;;;;;;3.80;2.58;;;16.60;1.00;;;;;;4863640;29;20056;-48
2022/11/12 02:51:52;;;;;;;4.50;3.00;;;16.60;1.00;;;;;;4863590;29;20076;-50
2022/11/12 02:54:37;;;;;;;5.55;3.00;;;16.60;1.00;;;;;;4863966;29;20064;-49
2022/11/12 02:57:23;;;;;;;4.80;2.80;;;16.60;1.00;;;;;;4863858;29;20056;-48
2022/11/12 03:00:11;;;;;;;5.38;2.50;;;16.60;1.00;;;;;;4863733;29;20056;-49
2022/11/12 03:03:00;;;;;;;4.18;2.72;;;16.60;1.00;;;;;;4863306;29;20134;-50
2022/11/12 03:05:57;;;;;;;3.72;2.42;;;16.60;1.00;;;;;;4863374;29;20057;-52
2022/11/12 03:08:42;;;;;;;4.40;2.55;;;16.60;1.00;;;;;;4863468;29;20076;-51
2022/11/12 03:11:28;;;;;;;5.97;3.10;;;16.60;1.00;;;;;;4863533;29;20052;-51
2022/11/12 03:14:13;;;;;;;4.68;2.78;;;16.60;1.00;;;;;;4863699;29;20132;-49
2022/11/12 03:16:59;;;;;;;4.45;2.85;;;16.60;1.00;;;;;;4863758;29;20133;-49
2022/11/12 03:19:44;;;;;;;5.38;2.97;;;16.60;1.00;;;;;;4863002;29;20548;-51
2022/11/12 03:22:30;;;;;;;4.88;2.85;;;16.60;1.00;;;;;;4863512;29;20133;-50
2022/11/12 03:25:15;;;;;;;5.35;3.33;;;16.60;1.00;;;;;;4863542;29;20613;-48
2022/11/12 03:28:04;;;;;;;4.55;2.50;;;16.60;1.00;;;;;;4863185;29;20056;-48
2022/11/12 03:30:49;;;;;;;3.47;2.80;;;16.60;1.00;;;;;;4862936;29;20089;-49
2022/11/12 03:33:34;;;;;;;3.80;2.60;;;16.60;1.00;;;;;;4863174;29;20461;-49
2022/11/12 03:36:20;;;;;;;4.10;2.25;;;16.60;1.00;;;;;;4862907;29;20060;-48
2022/11/12 03:39:05;;;;;;;6.10;2.85;;;16.60;1.00;;;;;;4862518;29;20153;-51
2022/11/12 03:41:51;;;;;;;5.20;2.97;;;16.60;1.00;;;;;;4862908;29;20055;-50
2022/11/12 03:44:36;;;;;;;5.97;2.53;;;16.50;1.00;;;;;;4863530;29;20503;-49
2022/11/12 03:47:22;;;;;;;3.40;2.92;;;16.60;1.00;;;;;;4862357;29;20071;-50
2022/11/12 03:50:09;;;;;;;4.30;3.28;;;16.60;1.00;;;;;;4862495;29;20101;-53
2022/11/12 03:52:57;;;;;;;3.72;3.15;;;16.60;1.00;;;;;;4862500;29;20526;-48
2022/11/12 03:55:42;;;;;;;4.60;2.88;;;16.60;1.00;;;;;;4862769;29;20068;-50
2022/11/12 03:58:28;;;;;;;3.95;2.70;;;16.60;1.00;;;;;;4862403;29;20076;-48
2022/11/12 04:01:13;;;;;;;4.63;2.85;;;16.50;1.00;;;;;;4862300;29;20057;-52
2022/11/12 04:03:59;;;;;;;5.65;3.50;;;16.60;1.00;;;;;;4862768;29;20057;-49
2022/11/12 04:09:48;;;;;;;4.50;3.33;;;16.50;1.00;;;;;;4862171;29;20059;-51
2022/11/12 04:15:37;;;;;;;3.90;3.03;;;16.50;1.00;;;;;;4862353;29;20416;-50
2022/11/12 04:27:44;;;;;;;4.38;3.28;;;16.50;1.00;;;;;;4861936;29;20458;-52
2022/11/12 04:30:29;;;;;;;5.80;3.58;;;16.50;1.00;;;;;;4861404;29;20162;-50
2022/11/12 04:33:15;;;;;;;4.90;3.13;;;16.50;1.00;;;;;;4862301;29;20095;-48
2022/11/12 04:36:00;;;;;;;5.72;3.17;;;16.50;1.00;;;;;;4861994;29;20160;-49
2022/11/12 04:38:46;;;;;;;3.67;2.90;;;16.50;1.00;;;;;;4861525;29;20522;-50
2022/11/12 04:47:42;;;;;;;6.78;3.25;;;16.50;1.00;;;;;;4862042;29;20060;-49
2022/11/12 04:50:28;;;;;;;7.18;3.30;;;16.50;1.00;;;;;;4861246;29;20480;-48
2022/11/12 04:53:14;;;;;;;5.18;3.50;;;16.50;1.00;;;;;;4861676;29;20525;-50
2022/11/12 04:55:59;;;;;;;5.95;3.65;;;16.50;1.00;;;;;;4861715;29;20060;-48
2022/11/12 04:58:45;;;;;;;4.47;3.40;;;16.50;1.00;;;;;;4861458;29;20052;-50
2022/11/12 05:01:30;;;;;;;5.60;2.80;;;16.50;1.00;;;;;;4861432;29;20145;-48
2022/11/12 05:04:16;;;;;;;5.28;3.15;;;16.50;1.00;;;;;;4861784;29;20066;-48
2022/11/12 05:07:01;;;;;;;5.38;3.20;;;16.50;1.00;;;;;;4861734;29;20429;-50
2022/11/12 05:09:47;;;;;;;4.55;3.50;;;16.50;1.00;;;;;;4860341;29;20056;-50
2022/11/12 05:12:32;;;;;;;4.35;3.05;;;16.50;1.00;;;;;;4861640;29;20509;-51
2022/11/12 05:15:18;;;;;;;4.85;3.35;;;16.50;1.00;;;;;;4861119;29;20119;-48
2022/11/12 05:18:03;;;;;;;7.75;3.28;;;16.50;1.00;;;;;;4861207;29;20064;-50
2022/11/12 05:20:52;;;;;;;4.20;3.13;;;16.50;1.00;;;;;;4861375;29;20380;-49
2022/11/12 05:23:37;;;;;;;5.05;2.85;;;16.50;1.00;;;;;;4861731;29;20073;-50
2022/11/12 05:26:22;;;;;;;5.95;3.17;;;16.50;1.00;;;;;;4861744;29;20518;-52
2022/11/12 05:29:07;;;;;;;5.88;3.83;;;16.50;1.00;;;;;;4860836;29;20102;-47
2022/11/12 05:31:53;;;;;;;5.13;3.45;;;16.50;1.00;;;;;;4861251;29;20171;-54
2022/11/12 05:34:39;;;;;;;6.13;3.83;;;16.50;1.00;;;;;;4861329;29;20195;-52
2022/11/12 05:37:24;;;;;;;6.60;4.20;;;16.50;1.00;;;;;;4861569;29;20106;-51
2022/11/12 05:40:10;;;;;;;4.90;3.40;;;16.50;1.00;;;;;;4860767;29;20067;-50
2022/11/12 05:42:56;;;;;;;7.95;4.28;;;16.50;1.00;;;;;;4861169;29;20054;-50
2022/11/12 05:45:42;;;;;;;5.18;3.90;;;16.50;1.00;;;;;;4861178;29;20513;-48
2022/11/12 05:48:28;;;;;;;5.45;3.78;;;16.40;1.00;;;;;;4861041;29;20467;-50
2022/11/12 05:51:14;;;;;;;5.20;4.00;;;16.50;1.00;;;;;;4861072;29;20550;-49
2022/11/12 05:54:00;;;;;;;5.10;3.90;;;16.50;1.00;;;;;;4861152;29;20450;-50
2022/11/12 05:56:46;;;;;;;7.70;4.38;;;16.40;1.00;;;;;;4860808;29;20061;-51
2022/11/12 05:59:31;;;;;;;6.78;4.40;;;16.40;1.00;;;;;;4860526;29;20061;-49
2022/11/12 06:02:17;;;;;;;6.32;4.07;;;16.50;1.00;;;;;;4873224;29;20137;-49
2022/11/12 06:05:03;;;;;;;6.47;4.32;;;16.40;1.00;;;;;;4860864;29;20452;-51
2022/11/12 06:07:48;;;;;;;6.15;4.30;;;16.50;1.00;;;;;;4861037;29;20112;-52
2022/11/12 06:10:34;;;;;;;5.97;4.20;;;16.40;1.00;;;;;;4860306;29;20060;-51
2022/11/12 06:13:21;;;;;;;8.13;4.55;;;16.40;1.00;;;;;;4860688;29;20057;-48
2022/11/12 06:16:07;;;;;;;5.35;4.28;;;16.40;1.00;;;;;;4861151;29;20061;-50
2022/11/12 06:18:52;;;;;;;6.45;4.28;;;16.40;1.00;;;;;;4860271;29;20455;-52
2022/11/12 06:21:37;;;;;;;7.65;4.72;;;16.40;1.00;;;;;;4863614;29;20530;-49
2022/11/12 06:24:23;;;;;;;7.53;4.68;;;16.40;1.00;;;;;;4864923;29;20068;-51
2022/11/12 06:27:08;;;;;;;7.47;5.20;;;16.40;1.00;;;;;;4864252;29;20064;-49
2022/11/12 06:29:54;;;;;;;7.03;5.38;;;16.50;1.00;;;;;;4863761;29;20525;-53
2022/11/12 06:32:39;;;;;;;7.70;4.35;;;16.40;1.00;;;;;;4863878;29;20052;-50
2022/11/12 06:35:27;;;;;;;7.85;5.28;;;16.40;1.00;;;;;;4864169;29;20056;-48
2022/11/12 06:38:12;;;;;;;7.22;5.18;;;16.40;1.00;;;;;;4876498;29;20136;-47
2022/11/12 06:40:58;;;;;;;6.97;4.85;;;16.40;1.00;;;;;;4864027;29;20145;-52
2022/11/12 06:43:43;;;;;;;7.10;5.60;;;16.40;1.00;;;;;;4864620;29;20061;-51
2022/11/12 06:46:29;;;;;;;6.00;4.82;;;16.40;1.00;;;;;;4863634;29;20098;-48
2022/11/12 06:49:14;;;;;;;7.80;5.22;;;16.40;1.00;;;;;;4863824;29;20069;-48
2022/11/12 06:52:00;;;;;;;8.50;5.35;;;16.40;1.00;;;;;;4864021;29;20124;-49
2022/11/12 06:54:45;;;;;;;7.75;5.72;;;16.40;1.00;;;;;;4863625;29;20060;-52
2022/11/12 06:57:32;;;;;;;7.38;5.70;;;16.40;1.00;;;;;;4863669;29;20190;-49
2022/11/12 07:00:17;;;;;;;8.15;5.50;;;16.40;1.00;;;;;;4863149;29;20523;-49
2022/11/12 07:03:07;;;;;;;7.78;5.53;;;16.40;1.00;;;;;;4863577;29;20530;-51
2022/11/12 07:05:52;;;;;;;11.43;6.93;;;16.40;1.00;;;;;;4863329;29;20531;-51
2022/11/12 07:08:39;;;;;;;8.57;5.80;;;16.40;1.00;;;;;;4862956;29;20109;-47
2022/11/12 07:11:24;;;;;;;9.25;6.10;;;16.40;1.00;;;;;;4863530;29;20052;-49
2022/11/12 07:14:10;;;;;;;11.57;7.03;;;16.40;1.00;;;;;;4863325;29;20052;-50
2022/11/12 07:16:55;;;;;;;11.05;6.78;;;16.40;1.00;;;;;;4863547;29;20527;-48
2022/11/12 07:19:42;;;;;;;10.15;6.18;;;16.40;1.00;;;;;;4862871;29;20441;-47
2022/11/12 07:22:27;;;;;;;11.25;6.40;;;16.40;1.00;;;;;;4863304;29;20105;-48
2022/11/12 07:25:13;;;;;;;10.05;7.05;;;16.40;1.00;;;;;;4862281;29;20113;-48
2022/11/12 07:27:58;;;;;;;9.27;6.80;;;16.40;1.00;;;;;;4856825;29;20051;-51
2022/11/12 07:30:44;;;;;;;13.15;7.07;;;16.40;1.00;;;;;;4855030;29;20056;-51
2022/11/12 07:33:30;;;;;;;24.88;14.27;;;16.40;1.00;;;;;;4855314;29;20077;-49
2022/11/12 07:36:18;;;;;;;29.95;19.38;;;16.40;1.00;;;;;;4854106;29;20060;-49
2022/11/12 07:39:03;;;;;;;38.03;21.52;;;16.30;1.00;;;;;;4860463;29;20064;-48
2022/11/12 07:41:50;;;;;;;39.65;20.13;;;16.30;1.00;;;;;;4862110;29;20163;-51
2022/11/12 07:44:35;;;;;;;39.65;21.73;;;16.30;1.00;;;;;;4863104;29;20060;-47
2022/11/12 07:47:23;;;;;;;33.25;19.58;;;16.20;1.00;;;;;;4862777;29;20125;-50
2022/11/12 07:50:09;;;;;;;31.70;17.48;;;16.20;1.00;;;;;;4862350;29;20053;-49
2022/11/12 07:52:58;;;;;;;30.60;18.00;;;16.30;1.00;;;;;;4862943;29;20060;-50
2022/11/12 07:55:52;;;;;;;38.08;19.00;;;16.20;1.00;;;;;;4862572;29;20152;-52
2022/11/12 07:58:39;;;;;;;36.85;18.92;;;16.20;1.00;;;;;;4862816;29;20064;-50
2022/11/12 08:01:40;;;;;;;39.45;18.77;;;16.20;1.00;;;;;;4863329;29;20202;-50
2022/11/12 08:04:26;;;;;;;32.50;18.13;;;16.20;1.00;;;;;;4860571;29;20517;-52
2022/11/12 08:07:12;;;;;;;29.13;17.83;;;16.20;1.00;;;;;;4880588;29;20059;-48
2022/11/12 08:09:58;;;;;;;29.75;17.17;;;16.20;1.00;;;;;;4867373;29;20073;-50
2022/11/12 08:12:43;;;;;;;30.48;17.95;;;16.30;1.00;;;;;;4862278;29;20559;-52
2022/11/12 08:15:29;;;;;;;28.95;17.75;;;16.20;1.00;;;;;;4855301;29;20060;-52
2022/11/12 08:18:15;;;;;;;28.15;16.25;;;16.30;1.00;;;;;;4855777;29;20595;-51
2022/11/12 08:21:02;;;;;;;26.48;16.58;;;16.20;1.00;;;;;;4855926;29;20179;-51
2022/11/12 08:23:48;;;;;;;29.38;15.80;;;16.30;1.00;;;;;;4861686;29;20056;-50
2022/11/12 08:26:33;;;;;;;37.50;17.90;;;16.20;1.00;;;;;;4861631;29;20075;-51
2022/11/12 08:29:19;;;;;;;28.88;17.88;;;16.20;1.00;;;;;;4861763;29;20098;-48
2022/11/12 08:32:04;;;;;;;28.17;14.48;;;16.20;1.00;;;;;;4861372;29;20086;-50
2022/11/12 08:34:49;;;;;;;25.13;14.77;;;16.20;1.00;;;;;;4868480;29;20084;-48
2022/11/12 08:37:34;;;;;;;25.35;15.55;;;16.20;1.00;;;;;;4879150;29;20059;-49
2022/11/12 08:40:20;;;;;;;21.83;14.05;;;16.20;1.00;;;;;;4879651;29;20108;-49
2022/11/12 08:43:07;;;;;;;22.75;13.93;;;16.20;1.00;;;;;;4880309;29;20083;-51
2022/11/12 08:45:53;;;;;;;28.92;15.80;;;16.20;1.00;;;;;;4880162;29;20176;-48
2022/11/12 08:48:39;;;;;;;27.27;16.33;;;16.20;1.00;;;;;;4880106;29;20128;-51
2022/11/12 08:51:24;;;;;;;25.38;13.88;;;16.20;1.00;;;;;;4880046;29;20063;-50
2022/11/12 08:54:10;;;;;;;25.50;13.75;;;16.20;1.00;;;;;;4880478;29;20055;-48
2022/11/12 08:56:55;;;;;;;23.20;13.27;;;16.20;1.00;;;;;;4879835;29;20427;-53
2022/11/12 08:59:41;;;;;;;20.50;12.77;;;16.20;1.00;;;;;;4879957;29;20499;-54
2022/11/12 09:02:26;;;;;;;21.63;13.38;;;16.20;1.00;;;;;;4878928;29;20068;-52
2022/11/12 09:05:11;;;;;;;19.02;12.00;;;16.20;1.00;;;;;;4880096;29;20055;-52
2022/11/12 09:07:59;;;;;;;21.15;12.52;;;16.20;1.00;;;;;;4879972;29;20055;-52
2022/11/12 09:10:45;;;;;;;19.63;11.90;;;16.20;1.00;;;;;;4842745;29;20056;-52
2022/11/12 09:13:31;;;;;;;18.67;11.70;;;16.20;1.00;;;;;;4843219;29;20099;-49
2022/11/12 09:16:16;;;;;;;21.08;11.02;;;16.20;1.00;;;;;;4843141;29;20162;-52
2022/11/12 09:19:01;;;;;;;17.95;10.88;;;16.20;1.00;;;;;;4842742;29;20056;-50
2022/11/12 09:21:47;;;;;;;17.52;10.18;;;16.20;1.00;;;;;;4842632;29;20064;-51
2022/11/12 09:24:33;;;;;;;15.88;10.32;;;16.20;1.00;;;;;;4842971;29;20065;-53
2022/11/12 09:27:18;;;;;;;20.42;9.13;;;16.20;1.00;;;;;;4841718;29;20053;-51
2022/11/12 09:30:05;;;;;;;17.65;10.98;;;16.20;1.00;;;;;;4869650;29;20051;-51
2022/11/12 09:32:57;;;;;;;15.68;8.70;;;16.20;1.00;;;;;;4863080;29;20052;-48
2022/11/12 09:35:44;;;;;;;12.55;8.32;;;16.20;1.00;;;;;;4857510;29;20056;-48
2022/11/12 09:38:30;;;;;;;13.15;8.75;;;16.10;1.00;;;;;;4865090;29;20523;-51
2022/11/12 09:41:31;;;;;;;13.23;8.40;;;16.10;1.00;;;;;;4860859;29;20194;-49
2022/11/12 09:44:19;;;;;;;13.38;8.05;;;16.20;1.00;;;;;;4861622;29;20106;-48
2022/11/12 09:47:08;;;;;;;14.20;7.15;;;16.20;1.00;;;;;;4860060;29;20117;-49
2022/11/12 09:50:19;;;;;;;13.40;7.80;;;16.20;1.00;;;;;;4860685;29;20055;-48
2022/11/12 09:53:18;;;;;;;12.85;7.57;;;16.20;1.00;;;;;;4861363;29;20186;-49
2022/11/12 09:56:11;;;;;;;13.18;7.75;;;16.20;1.00;;;;;;4863442;29;20053;-49
2022/11/12 09:58:56;;;;;;;9.77;6.35;;;16.20;1.00;;;;;;4870379;29;20064;-49
2022/11/12 10:01:57;;;;;;;11.55;6.47;;;16.20;1.00;;;;;;4872865;29;20408;-48
2022/11/12 10:05:04;;;;;;;11.07;6.63;;;16.20;1.00;;;;;;4865296;29;20064;-49
2022/11/12 10:08:21;;;;;;;9.82;6.72;;;16.20;1.00;;;;;;4858795;29;20119;-48
2022/11/12 10:16:41;;;;;;;8.05;6.13;;;16.30;1.00;;;;;;4881123;29;20052;-50
2022/11/12 10:18:14;;;;;;;10.40;7.28;;;16.30;1.00;;;;;;4846099;29;20066;-50
2022/11/12 10:21:06;;;;;;;9.55;5.60;;;16.40;1.00;;;;;;4845603;29;20053;-49
2022/11/12 10:23:58;;;;;;;8.52;5.70;;;16.50;1.00;;;;;;4882642;29;20071;-48
2022/11/12 10:26:44;;;;;;;8.25;5.85;;;16.60;1.00;;;;;;4882778;29;20075;-49
2022/11/12 10:29:45;;;;;;;8.15;5.63;;;16.90;1.00;;;;;;4881633;29;20522;-52
2022/11/12 10:32:31;;;;;;;6.13;4.38;;;17.20;1.00;;;;;;4882294;29;20056;-50
2022/11/12 10:35:18;;;;;;;8.15;4.55;;;17.50;1.00;;;;;;4883016;29;20108;-51
2022/11/12 10:38:11;;;;;;;6.13;4.05;;;17.90;1.00;;;;;;4882823;29;20059;-47
2022/11/12 10:40:56;;;;;;;8.43;4.97;;;18.20;1.00;;;;;;4845508;29;20543;-50
2022/11/12 10:43:59;;;;;;;7.55;4.18;;;18.50;1.00;;;;;;4845414;29;20133;-50
2022/11/12 10:46:44;;;;;;;9.02;3.67;;;18.80;1.00;;;;;;4845509;29;20122;-52
2022/11/12 10:49:30;;;;;;;4.93;3.92;;;19.00;1.00;;;;;;4844746;29;20060;-50
2022/11/12 10:52:23;;;;;;;6.57;3.50;;;19.20;1.00;;;;;;4845031;29;20133;-49
2022/11/12 10:55:16;;;;;;;5.72;4.10;;;19.50;1.00;;;;;;4845434;29;20404;-49
2022/11/12 10:58:11;;;;;;;6.22;4.05;;;19.70;1.00;;;;;;4858427;29;20072;-52
2022/11/12 11:01:03;;;;;;;5.95;3.58;;;19.80;1.00;;;;;;4863407;29;20571;-47
2022/11/12 11:03:56;;;;;;;6.43;4.05;;;19.90;1.00;;;;;;4862789;29;20060;-50
2022/11/12 11:06:42;;;;;;;5.32;3.67;;;20.10;1.00;;;;;;4862074;29;20529;-49
2022/11/12 11:09:27;;;;;;;6.13;3.95;;;20.20;1.00;;;;;;4862582;29;20056;-50
2022/11/12 11:12:27;;;;;;;5.80;4.15;;;20.30;1.00;;;;;;4863157;29;20202;-48
2022/11/12 11:15:23;;;;;;;5.30;3.70;;;20.50;1.00;;;;;;4852900;29;20144;-49
2022/11/12 11:18:13;;;;;;;7.13;4.43;;;20.60;1.00;;;;;;4862123;29;20155;-50
2022/11/12 11:21:07;;;;;;;5.93;4.65;;;20.70;1.00;;;;;;4861900;29;20057;-50
2022/11/12 11:24:30;;;;;;;5.10;3.72;;;20.90;1.00;;;;;;4862910;29;20068;-48
2022/11/12 11:27:24;;;;;;;6.22;4.03;;;21.00;1.00;;;;;;4862873;29;20056;-48
2022/11/12 11:30:20;;;;;;;9.27;4.70;;;21.10;1.00;;;;;;4862894;29;20048;-50
2022/11/12 11:33:25;;;;;;;7.00;5.10;;;21.30;1.00;;;;;;4862512;29;20053;-52
2022/11/12 11:36:47;;;;;;;7.13;4.63;;;21.40;1.00;;;;;;4862880;29;20061;-49
2022/11/12 11:39:42;;;;;;;6.80;4.22;;;21.50;1.00;;;;;;4861749;29;20060;-49
2022/11/12 11:42:57;;;;;;;7.65;4.03;;;21.70;1.00;;;;;;4862875;29;20060;-52
2022/11/12 11:46:06;;;;;;;7.70;4.93;;;21.80;1.00;;;;;;4863252;29;20172;-52
2022/11/12 11:49:27;;;;;;;8.77;5.32;;;21.90;1.00;;;;;;4862372;29;20118;-52
2022/11/12 11:52:41;;;;;;;7.00;5.03;;;22.00;1.00;;;;;;4862771;29;20132;-52
2022/11/12 11:55:48;;;;;;;20.92;6.03;;;22.10;1.00;;;;;;4844038;29;20157;-52
2022/11/12 11:58:57;;;;;;;10.02;4.78;;;22.20;1.00;;;;;;4843606;29;20065;-53
2022/11/12 12:01:55;;;;;;;10.77;6.15;;;22.20;1.00;;;;;;4844060;29;20118;-51
2022/11/12 12:04:46;;;;;;;9.02;5.50;;;22.20;1.00;;;;;;4846754;29;20068;-51
2022/11/12 12:07:34;;;;;;;9.07;5.45;;;22.30;1.00;;;;;;4862515;29;20093;-52
2022/11/12 12:10:28;;;;;;;8.88;4.75;;;22.40;1.00;;;;;;4861942;29;20057;-51
2022/11/12 12:13:57;;;;;;;12.68;6.82;;;22.40;1.00;;;;;;4868641;29;20419;-56
2022/11/12 12:16:42;;;;;;;18.73;5.55;;;22.40;1.00;;;;;;4880971;29;20101;-52
2022/11/12 12:20:01;;;;;;;15.45;6.47;;;22.40;1.00;;;;;;4843391;29;20084;-52
2022/11/12 12:23:01;;;;;;;12.00;5.05;;;22.40;1.00;;;;;;4844039;29;20561;-51
2022/11/12 12:25:49;;;;;;;12.75;6.57;;;22.40;1.00;;;;;;4843628;29;20069;-51
2022/11/12 12:28:41;;;;;;;19.33;7.65;;;22.40;1.00;;;;;;4859717;29;20091;-55
2022/11/12 12:31:34;;;;;;;17.17;6.00;;;22.40;1.00;;;;;;4861711;29;20056;-50
2022/11/12 12:34:33;;;;;;;13.82;6.80;;;22.30;1.00;;;;;;4862132;29;20560;-52
2022/11/12 12:37:50;;;;;;;10.38;6.07;;;22.30;1.00;;;;;;4861581;29;20072;-50
2022/11/12 12:41:28;;;;;;;7.38;5.45;;;22.30;1.00;;;;;;4861734;29;20093;-51
2022/11/12 12:44:13;;;;;;;9.25;6.63;;;22.20;1.00;;;;;;4817969;29;20064;-48
2022/11/12 12:47:01;;;;;;;16.00;5.75;;;22.20;1.00;;;;;;4860211;29;20129;-50
2022/11/12 12:49:49;;;;;;;11.05;6.50;;;22.20;1.00;;;;;;4861247;29;20057;-50
2022/11/12 12:53:00;;;;;;;12.98;6.63;;;22.10;1.00;;;;;;4849511;29;20142;-49
2022/11/12 12:55:51;;;;;;;11.30;5.60;;;22.10;1.00;;;;;;4843173;29;20048;-49
2022/11/12 12:58:39;;;;;;;10.23;6.10;;;22.00;1.00;;;;;;4861010;29;20064;-48
2022/11/12 13:01:34;;;;;;;14.63;7.05;;;22.00;1.00;;;;;;4861160;29;20541;-48
2022/11/12 13:04:50;;;;;;;7.63;5.80;;;22.00;1.00;;;;;;4861676;29;20064;-50
2022/11/12 13:07:43;;;;;;;17.00;6.13;;;21.90;1.00;;;;;;4861507;29;20057;-50
2022/11/12 13:10:37;;;;;;;11.63;7.43;;;21.80;1.00;;;;;;4860966;29;20469;-49
2022/11/12 13:13:26;;;;;;;17.10;7.22;;;21.80;1.00;;;;;;4861278;29;20060;-49
2022/11/12 13:16:52;;;;;;;15.45;6.57;;;21.70;1.00;;;;;;4861382;29;20121;-54
2022/11/12 13:19:53;;;;;;;13.20;6.93;;;21.70;1.00;;;;;;4850656;29;20056;-49
2022/11/12 13:22:39;;;;;;;9.48;6.40;;;21.60;1.00;;;;;;4861530;29;20151;-55
2022/11/12 13:25:31;;;;;;;15.10;7.47;;;21.60;1.00;;;;;;4861492;29;20415;-47
2022/11/12 13:28:16;;;;;;;12.50;7.07;;;21.50;1.00;;;;;;4861446;29;20052;-50
2022/11/12 13:31:03;;;;;;;11.40;7.05;;;21.50;1.00;;;;;;4860579;29;20082;-50
2022/11/12 13:33:48;;;;;;;14.38;8.25;;;21.40;1.00;;;;;;4861022;29;20575;-52
2022/11/12 13:36:34;;;;;;;11.07;7.10;;;21.40;1.00;;;;;;4860925;29;20057;-47
2022/11/12 13:39:22;;;;;;;17.58;7.95;;;21.30;1.00;;;;;;4861151;29;20136;-51
2022/11/12 13:45:26;;;;;;;11.60;7.00;;;21.20;1.00;;;;;;4853200;29;20545;-54
2022/11/12 13:48:26;;;;;;;10.50;7.35;;;21.20;1.00;;;;;;4879504;29;20052;-49
2022/11/12 13:51:13;;;;;;;11.93;7.43;;;21.10;1.00;;;;;;4864251;29;20398;-52
2022/11/12 13:53:59;;;;;;;13.38;8.13;;;21.10;1.00;;;;;;4842995;29;20088;-49
2022/11/12 13:56:44;;;;;;;14.70;7.35;;;21.00;1.00;;;;;;4842255;29;20057;-49
2022/11/12 13:59:29;;;;;;;14.45;8.60;;;21.00;1.00;;;;;;4842220;29;20056;-53
2022/11/12 14:02:25;;;;;;;15.45;8.65;;;21.00;1.00;;;;;;4842780;29;20069;-50
2022/11/12 14:05:17;;;;;;;17.20;8.73;;;20.90;1.00;;;;;;4854946;29;20149;-49
2022/11/12 14:08:24;;;;;;;18.23;8.88;;;20.90;1.00;;;;;;4861341;29;20057;-47
2022/11/12 14:11:41;;;;;;;14.57;7.85;;;20.80;1.00;;;;;;4860902;29;20049;-51
2022/11/12 14:14:35;;;;;;;15.98;8.63;;;20.80;1.00;;;;;;4860897;29;20135;-52
2022/11/12 14:17:39;;;;;;;18.65;8.68;;;20.70;1.00;;;;;;4860714;29;20052;-53
2022/11/12 14:20:35;;;;;;;12.02;8.70;;;20.70;1.00;;;;;;4847677;29;20061;-49
2022/11/12 14:23:22;;;;;;;14.93;7.82;;;20.60;1.00;;;;;;4842263;29;20061;-52
2022/11/12 14:26:12;;;;;;;15.10;7.38;;;20.60;1.00;;;;;;4842274;29;20049;-54
2022/11/12 14:28:58;;;;;;;12.18;8.65;;;20.60;1.00;;;;;;4841691;29;20053;-53
2022/11/12 14:31:43;;;;;;;17.20;9.18;;;20.50;1.00;;;;;;4842203;29;20523;-51
2022/11/12 14:34:31;;;;;;;19.27;9.20;;;20.50;1.00;;;;;;4846677;29;20407;-51
2022/11/12 14:37:34;;;;;;;20.08;8.15;;;20.50;1.00;;;;;;4879019;29;20056;-52
2022/11/12 14:40:28;;;;;;;15.68;9.13;;;20.40;1.00;;;;;;4878718;29;20060;-52
2022/11/12 14:43:28;;;;;;;17.27;9.38;;;20.40;1.00;;;;;;4882884;29;20068;-51
2022/11/12 14:46:25;;;;;;;12.55;7.75;;;20.40;1.00;;;;;;4882549;29;20119;-53
2022/11/12 14:49:20;;;;;;;15.23;8.63;;;20.40;1.00;;;;;;4881983;29;20064;-53
2022/11/12 14:52:10;;;;;;;18.25;9.35;;;20.30;1.00;;;;;;4882333;29;20541;-49
2022/11/12 14:55:02;;;;;;;14.95;7.78;;;20.30;1.00;;;;;;4882214;29;20125;-54
2022/11/12 14:57:48;;;;;;;13.07;8.48;;;20.20;1.00;;;;;;4882205;29;20060;-54
2022/11/12 15:00:53;;;;;;;13.52;8.30;;;20.20;1.00;;;;;;4881594;29;20132;-53
2022/11/12 15:03:39;;;;;;;12.60;8.48;;;20.20;1.00;;;;;;4882517;29;20399;-52
2022/11/12 15:06:31;;;;;;;14.88;9.18;;;20.10;1.00;;;;;;4882354;29;20056;-53
2022/11/12 15:09:32;;;;;;;12.07;8.52;;;20.10;1.00;;;;;;4881818;29;20121;-53
2022/11/12 15:12:36;;;;;;;11.25;7.80;;;20.10;1.00;;;;;;4882165;29;20048;-51
2022/11/12 15:15:21;;;;;;;11.90;7.93;;;20.00;1.00;;;;;;4882146;29;20391;-52
2022/11/12 15:18:16;;;;;;;14.82;8.43;;;20.00;1.00;;;;;;4882653;29;20097;-53
2022/11/12 15:21:10;;;;;;;15.07;8.68;;;19.90;1.00;;;;;;4881533;29;20192;-50